Johnsonville, SC (29555)

2:17 AM EDT on August 30, 2015 (GMT -0400)
Radio Baha'i, 90.9 FM | | Change Station
CLOSE
Current Station
Personal Weather Station
Location: Hemingway, SC
Elevation: 55 ft
Nearby Weather Stations

Elev 55 ft 33.72 °N, 79.33 °W | Updated 59 seconds ago

Clear
Clear
70.5 °F
Feels Like 70.5 °F
N
0.0
Wind Variable Wind from SSW
Gusts 0.0 mph

Today
High -- | Low -- °F
--% Chance of Precip.
Yesterday
High -- | Low -- °F
Precip. -- in
6:50 AM 7:46 PM
Full, 100% visible
Pressure 30.12 in
Visibility 5.0 miles
Clouds Scattered Clouds 3400 ft
Scattered Clouds 4100 ft
Dew Point 70 °F
Humidity 97%
Rainfall 0.00 in
Snow Depth Not available.
UV 0.0 out of 12
Pollen 7.80 out of 12
Air Quality Not available.
Flu Activity Not available.
METAR KHYW 300615Z AUTO 00000KT 5SM BR SCT034 SCT041 21/21 A3012 RMK AO2 LTG DSNT S
Pressure 30.12 in
Visibility 5.0 miles
Clouds Scattered Clouds 3400 ft
Scattered Clouds 4100 ft
Dew Point 70 °F
Humidity 97%
Rainfall 0.00 in
Snow Depth Not available.
UV 0.0 out of 12
Pollen 7.80 out of 12
Air Quality Not available.
Flu Activity Not available.
METAR KHYW 300615Z AUTO 00000KT 5SM BR SCT034 SCT041 21/21 A3012 RMK AO2 LTG DSNT S

10-Day Weather Forecast

×

Almanac

Astronomy

Aug. 30, 2015 Rise Set
Actual Time
Civil Twilight
Nautical Twilight
Astronomical Twilight
Moon
Length of Visible Light
Length of Day
Tomorrow will be .
, % of the Moon is Illuminated

Today's Extremes

State Highs State Lows

Community

WunderPhotos

Upload Photos

1,850,897 photos uploaded!

WunderBlogs® & News

Nearby

Air Quality

  Air Quality AQ Index Pollutant
Not available.

Snow Depth

Station Depth Elevation

Earthquake Activity

City Distance Mag. Time & Date
Minimum magnitude displayed is 2.5.

Coastal Water Temperatures

Place Temperature

Stations

Nearby Weather Stations

Station Location Temp. Windchill Dew Point Humidity Wind Precip. Elev Updated Type